createdAt,value
2022-11-08T00:02:05.484Z,2.60
2022-11-08T00:04:32.253Z,2.52
2022-11-08T00:07:17.444Z,2.41
2022-11-08T00:10:02.721Z,2.31
2022-11-08T00:12:47.589Z,2.31
2022-11-08T00:15:14.122Z,2.32
2022-11-08T00:17:40.676Z,2.26
2022-11-08T00:20:08.892Z,2.19
2022-11-08T00:22:35.433Z,2.15
2022-11-08T00:25:01.986Z,2.10
2022-11-08T00:27:28.475Z,2.11
2022-11-08T00:29:55.041Z,2.12
2022-11-08T00:32:24.280Z,2.16
2022-11-08T00:34:52.945Z,2.12
2022-11-08T00:37:20.952Z,2.00
2022-11-08T00:39:48.124Z,1.90
2022-11-08T00:42:15.074Z,1.85
2022-11-08T00:44:41.724Z,1.84
2022-11-08T00:47:08.239Z,1.77
2022-11-08T00:49:35.022Z,1.71
2022-11-08T00:52:01.659Z,1.71
2022-11-08T00:54:28.203Z,1.71
2022-11-08T00:56:54.709Z,1.71
2022-11-08T00:59:21.276Z,1.71
2022-11-08T01:01:48.437Z,1.70
2022-11-08T01:04:18.593Z,1.79
2022-11-08T01:06:45.647Z,1.77
2022-11-08T01:09:12.708Z,1.81
2022-11-08T01:11:40.132Z,1.78
2022-11-08T01:14:06.699Z,1.76
2022-11-08T01:16:34.257Z,1.79
2022-11-08T01:19:02.351Z,1.81
2022-11-08T01:21:29.478Z,1.83
2022-11-08T01:23:56.461Z,1.86
2022-11-08T01:26:27.969Z,1.92
2022-11-08T01:28:56.241Z,1.95
2022-11-08T01:31:28.732Z,1.99
2022-11-08T01:33:56.490Z,2.00
2022-11-08T01:36:25.948Z,2.03
2022-11-08T01:38:53.227Z,2.06
2022-11-08T01:41:21.773Z,2.11
2022-11-08T01:43:55.629Z,2.09
2022-11-08T01:46:35.880Z,2.12
2022-11-08T01:49:30.150Z,2.14
2022-11-08T01:52:14.685Z,2.13
2022-11-08T01:55:02.599Z,2.14
2022-11-08T01:57:53.248Z,2.14
2022-11-08T02:00:19.997Z,2.17
2022-11-08T02:02:51.622Z,2.17
2022-11-08T02:05:25.530Z,2.18
2022-11-08T02:08:01.278Z,2.18
2022-11-08T02:10:34.648Z,2.13
2022-11-08T02:13:04.933Z,2.14
2022-11-08T02:15:31.961Z,2.22
2022-11-08T02:17:58.588Z,2.26
2022-11-08T02:20:25.139Z,2.27
2022-11-08T02:23:12.069Z,2.29
2022-11-08T02:25:38.657Z,2.23
2022-11-08T02:28:05.206Z,2.20
2022-11-08T02:30:36.370Z,2.21
2022-11-08T02:33:16.320Z,2.18
2022-11-08T02:35:46.433Z,2.18
2022-11-08T02:38:12.913Z,2.17
2022-11-08T02:40:49.985Z,2.19
2022-11-08T02:43:16.671Z,2.19
2022-11-08T02:45:43.240Z,2.19
2022-11-08T02:48:10.059Z,2.17
2022-11-08T02:50:36.786Z,2.18
2022-11-08T02:53:03.554Z,2.18
2022-11-08T02:55:30.483Z,2.21
2022-11-08T02:57:57.250Z,2.24
2022-11-08T03:00:23.913Z,2.23
2022-11-08T03:02:54.566Z,2.24
2022-11-08T03:05:21.825Z,2.25
2022-11-08T03:07:48.618Z,2.27
2022-11-08T03:10:16.252Z,2.27
2022-11-08T03:12:43.098Z,2.28
2022-11-08T03:15:11.884Z,2.28
2022-11-08T03:17:38.739Z,2.28
2022-11-08T03:20:07.173Z,2.27
2022-11-08T03:22:33.726Z,2.28
2022-11-08T03:25:00.215Z,2.25
2022-11-08T03:27:27.105Z,2.18
2022-11-08T03:29:53.582Z,2.17
2022-11-08T03:32:20.061Z,2.14
2022-11-08T03:34:46.567Z,2.15
2022-11-08T03:37:13.061Z,2.17
2022-11-08T03:39:39.537Z,2.17
2022-11-08T03:42:06.432Z,2.18
2022-11-08T03:44:33.012Z,2.21
2022-11-08T03:47:00.329Z,2.28
2022-11-08T03:49:26.892Z,2.34
2022-11-08T03:51:54.642Z,2.43
2022-11-08T03:54:21.214Z,2.48
2022-11-08T03:56:47.958Z,2.46
2022-11-08T03:59:14.543Z,2.41
2022-11-08T04:01:41.281Z,2.41
2022-11-08T04:04:07.985Z,2.38
2022-11-08T04:06:34.517Z,2.40
2022-11-08T04:09:01.041Z,2.42
2022-11-08T04:11:46.006Z,2.47
2022-11-08T04:14:31.130Z,2.52
2022-11-08T04:16:57.660Z,2.63
2022-11-08T04:19:42.556Z,2.70
2022-11-08T04:22:11.642Z,2.74
2022-11-08T04:24:38.147Z,2.74
2022-11-08T04:27:04.647Z,2.79
2022-11-08T04:29:31.260Z,2.79
2022-11-08T04:31:57.770Z,2.81
2022-11-08T04:34:24.256Z,2.85
2022-11-08T04:36:50.737Z,2.86
2022-11-08T04:39:17.352Z,2.90
2022-11-08T04:41:43.866Z,2.91
2022-11-08T04:44:10.435Z,2.87
2022-11-08T04:46:36.932Z,2.85
2022-11-08T04:49:04.587Z,2.86
2022-11-08T04:51:32.861Z,2.88
2022-11-08T04:54:01.398Z,2.90
2022-11-08T04:56:29.846Z,2.91
2022-11-08T04:58:58.564Z,2.94
2022-11-08T05:01:28.063Z,2.96
2022-11-08T05:03:55.345Z,2.99
2022-11-08T05:06:24.598Z,3.04
2022-11-08T05:08:51.632Z,3.11
2022-11-08T05:11:22.461Z,3.15
2022-11-08T05:13:50.236Z,3.14
2022-11-08T05:16:22.387Z,3.09
2022-11-08T05:18:49.106Z,3.09
2022-11-08T05:21:36.057Z,3.13
2022-11-08T05:24:04.925Z,3.12
2022-11-08T05:26:34.964Z,3.14
2022-11-08T05:29:01.598Z,3.16
2022-11-08T05:31:28.353Z,3.18
2022-11-08T05:33:54.887Z,3.21
2022-11-08T05:36:21.593Z,3.24
2022-11-08T05:38:48.306Z,3.27
2022-11-08T05:41:20.596Z,3.33
2022-11-08T05:43:49.398Z,3.38
2022-11-08T05:46:17.484Z,3.42
2022-11-08T05:48:44.718Z,3.43
2022-11-08T05:51:12.210Z,3.45
2022-11-08T05:53:39.972Z,3.49
2022-11-08T05:56:06.878Z,3.54
2022-11-08T05:58:34.949Z,3.57
2022-11-08T06:01:01.873Z,3.61
2022-11-08T06:03:29.603Z,3.63
2022-11-08T06:06:00.966Z,3.65
2022-11-08T06:08:27.507Z,3.67
2022-11-08T06:10:54.013Z,3.73
2022-11-08T06:13:20.521Z,3.79
2022-11-08T06:15:46.984Z,3.80
2022-11-08T06:18:13.485Z,3.84
2022-11-08T06:20:40.046Z,3.86
2022-11-08T06:23:06.592Z,3.91
2022-11-08T06:25:33.396Z,3.95
2022-11-08T06:28:00.777Z,3.98
2022-11-08T06:30:27.253Z,4.04
2022-11-08T06:32:53.775Z,4.07
2022-11-08T06:35:20.277Z,4.11
2022-11-08T06:37:47.030Z,4.18
2022-11-08T06:40:13.971Z,4.23
2022-11-08T06:42:40.483Z,4.24
2022-11-08T06:45:07.419Z,4.26
2022-11-08T06:47:33.979Z,4.29
2022-11-08T06:50:00.494Z,4.33
2022-11-08T06:52:26.973Z,4.35
2022-11-08T06:54:53.625Z,4.39
2022-11-08T06:57:20.114Z,4.46
2022-11-08T06:59:46.685Z,4.53
2022-11-08T07:02:13.244Z,4.61
2022-11-08T07:04:40.207Z,4.68
2022-11-08T07:07:06.957Z,4.70
2022-11-08T07:09:33.856Z,4.69
2022-11-08T07:12:00.374Z,4.67
2022-11-08T07:14:26.911Z,4.70
2022-11-08T07:16:53.417Z,4.75
2022-11-08T07:19:19.909Z,4.80
2022-11-08T07:21:46.664Z,4.87
2022-11-08T07:24:13.189Z,4.94
2022-11-08T07:26:39.712Z,5.01
2022-11-08T07:29:06.244Z,5.06
2022-11-08T07:31:32.761Z,5.08
2022-11-08T07:33:59.284Z,5.11
2022-11-08T07:36:25.796Z,5.16
2022-11-08T07:38:52.472Z,5.23
2022-11-08T07:41:19.022Z,5.33
2022-11-08T07:43:45.505Z,5.42
2022-11-08T07:46:12.037Z,5.50
2022-11-08T07:48:38.604Z,5.57
2022-11-08T07:51:05.193Z,5.61
2022-11-08T07:53:31.730Z,5.67
2022-11-08T07:55:58.418Z,5.77
2022-11-08T07:58:25.490Z,5.84
2022-11-08T08:00:52.164Z,5.82
2022-11-08T08:03:19.079Z,5.79
2022-11-08T08:05:46.029Z,5.80
2022-11-08T08:08:13.515Z,5.88
2022-11-08T08:10:41.263Z,5.95
2022-11-08T08:13:07.872Z,6.04
2022-11-08T08:15:34.492Z,6.12
2022-11-08T08:18:02.833Z,6.18
2022-11-08T08:20:30.646Z,6.23
2022-11-08T08:22:57.898Z,6.25
2022-11-08T08:25:25.151Z,6.29
2022-11-08T08:27:56.812Z,6.35
2022-11-08T08:30:24.849Z,6.39
2022-11-08T08:33:21.940Z,6.42
2022-11-08T08:35:39.255Z,6.47
2022-11-08T08:38:06.988Z,6.54
2022-11-08T08:40:34.177Z,6.58
2022-11-08T08:43:03.187Z,6.70
2022-11-08T08:45:30.558Z,6.62
2022-11-08T08:47:59.642Z,6.60
2022-11-08T08:50:28.545Z,6.57
2022-11-08T08:52:59.848Z,6.62
2022-11-08T08:55:26.894Z,6.66
2022-11-08T08:57:54.019Z,6.70
2022-11-08T09:03:09.829Z,6.83
2022-11-08T09:05:37.522Z,6.95
2022-11-08T09:08:04.302Z,7.02
2022-11-08T09:10:30.936Z,7.14
2022-11-08T09:12:57.427Z,7.18
2022-11-08T09:15:24.072Z,7.27
2022-11-08T09:17:54.340Z,7.35
2022-11-08T09:20:21.241Z,7.39
2022-11-08T09:22:47.801Z,7.39
2022-11-08T09:25:15.554Z,7.44
2022-11-08T09:27:42.299Z,7.50
2022-11-08T09:30:09.586Z,7.57
2022-11-08T09:32:59.050Z,7.55
2022-11-08T09:35:23.305Z,7.61
2022-11-08T09:37:50.176Z,7.64
2022-11-08T09:40:51.065Z,7.65
2022-11-08T09:44:04.321Z,7.65
2022-11-08T09:46:53.595Z,7.71
2022-11-08T09:49:42.925Z,7.77
2022-11-08T09:52:16.209Z,7.65
2022-11-08T09:54:46.610Z,7.65
2022-11-08T09:57:43.842Z,7.75
2022-11-08T10:00:12.887Z,7.81
2022-11-08T10:02:39.582Z,7.91
2022-11-08T10:05:12.825Z,8.01
2022-11-08T10:08:02.463Z,8.09
2022-11-08T10:10:40.722Z,8.11
2022-11-08T10:13:37.596Z,8.15
2022-11-08T10:16:06.992Z,8.19
2022-11-08T10:18:40.369Z,8.26
2022-11-08T10:21:39.232Z,8.28
2022-11-08T10:24:23.162Z,8.36
2022-11-08T10:26:52.164Z,8.48
2022-11-08T10:29:28.398Z,8.63
2022-11-08T10:32:05.579Z,8.70
2022-11-08T10:34:41.295Z,8.83
2022-11-08T10:37:13.465Z,9.02
2022-11-08T10:39:48.095Z,9.21
2022-11-08T10:42:33.134Z,9.48
2022-11-08T10:44:59.693Z,9.69
2022-11-08T10:47:29.393Z,9.84
2022-11-08T10:50:00.906Z,9.94
2022-11-08T10:53:02.372Z,10.26
2022-11-08T10:55:33.445Z,10.49
2022-11-08T10:58:01.250Z,10.67
2022-11-08T11:00:30.609Z,11.36
2022-11-08T11:03:06.101Z,11.63
2022-11-08T11:05:38.182Z,11.58
2022-11-08T11:08:14.895Z,11.63
2022-11-08T11:10:47.591Z,11.87
2022-11-08T11:16:05.222Z,12.84
2022-11-08T11:18:37.148Z,13.02
2022-11-08T11:21:21.932Z,13.42
2022-11-08T11:23:51.954Z,13.13
2022-11-08T11:26:30.232Z,12.89
2022-11-08T11:29:05.989Z,12.94
2022-11-08T11:31:36.488Z,13.23
2022-11-08T11:34:18.184Z,13.26
2022-11-08T11:37:10.777Z,13.36
2022-11-08T11:39:57.601Z,13.54
2022-11-08T11:42:44.517Z,13.69
2022-11-08T11:45:34.758Z,14.50
2022-11-08T11:48:05.105Z,14.92
2022-11-08T11:50:37.271Z,15.05
2022-11-08T11:53:22.818Z,14.96
2022-11-08T11:56:01.566Z,14.93
2022-11-08T11:58:40.209Z,15.62
2022-11-08T12:01:40.658Z,16.02
2022-11-08T12:04:40.957Z,16.42
2022-11-08T12:07:29.419Z,16.79
2022-11-08T12:10:11.086Z,17.56
2022-11-08T12:12:59.036Z,18.39
2022-11-08T12:16:00.745Z,19.03
2022-11-08T12:18:42.140Z,19.07
2022-11-08T12:21:33.329Z,19.56
2022-11-08T12:24:44.730Z,20.02
2022-11-08T12:27:30.422Z,20.70
2022-11-08T12:30:16.186Z,20.51
2022-11-08T12:33:08.556Z,20.04
2022-11-08T12:36:01.265Z,20.56
2022-11-08T12:38:54.941Z,20.96
2022-11-08T12:42:00.105Z,20.98
2022-11-08T12:45:07.814Z,21.11
2022-11-08T12:47:56.025Z,20.87
2022-11-08T12:50:50.000Z,21.12
2022-11-08T12:53:40.301Z,21.29
2022-11-08T12:56:15.437Z,21.58
2022-11-08T12:58:46.989Z,21.20
2022-11-08T13:01:15.942Z,20.95
2022-11-08T13:03:42.857Z,21.17
2022-11-08T13:06:37.180Z,21.02
2022-11-08T13:09:47.675Z,21.35
2022-11-08T13:12:32.714Z,21.11
2022-11-08T13:15:00.833Z,21.45
2022-11-08T13:17:28.665Z,21.61
2022-11-08T13:20:06.381Z,21.55
2022-11-08T13:22:32.842Z,21.01
2022-11-08T13:25:00.606Z,20.57
2022-11-08T13:27:44.213Z,20.89
2022-11-08T13:30:16.789Z,21.43
2022-11-08T13:32:43.265Z,21.33
2022-11-08T13:35:15.835Z,21.40
2022-11-08T13:37:54.216Z,21.11
2022-11-08T13:40:29.786Z,20.93
2022-11-08T13:43:18.529Z,20.95
2022-11-08T13:45:45.745Z,20.66
2022-11-08T13:48:36.128Z,20.40
2022-11-08T13:51:23.082Z,19.41
2022-11-08T13:54:01.302Z,18.92
2022-11-08T13:56:43.098Z,18.42
2022-11-08T13:59:31.560Z,18.07
2022-11-08T14:01:58.433Z,18.17
2022-11-08T14:04:32.958Z,18.10
2022-11-08T14:07:05.481Z,18.20
2022-11-08T14:10:13.800Z,18.33
2022-11-08T14:12:46.473Z,18.30
2022-11-08T14:15:24.873Z,18.30
2022-11-08T14:18:23.369Z,18.22
2022-11-08T14:20:50.425Z,17.93
2022-11-08T14:23:20.369Z,17.83
2022-11-08T14:26:11.575Z,17.55
2022-11-08T14:28:41.045Z,17.29
2022-11-08T14:31:24.281Z,16.92
2022-11-08T14:33:50.932Z,16.51
2022-11-08T14:36:19.681Z,16.15
2022-11-08T14:38:49.207Z,15.72
2022-11-08T14:41:29.569Z,15.32
2022-11-08T14:43:59.278Z,15.04
2022-11-08T14:46:31.518Z,14.78
2022-11-08T14:49:07.491Z,14.56
2022-11-08T14:51:34.457Z,14.24
2022-11-08T14:54:01.421Z,14.13
2022-11-08T14:56:36.810Z,13.83
2022-11-08T14:59:06.914Z,13.55
2022-11-08T15:01:34.985Z,13.36
2022-11-08T15:04:14.505Z,13.08
2022-11-08T15:06:50.133Z,12.91
2022-11-08T15:09:43.192Z,12.61
2022-11-08T15:12:17.335Z,12.44
2022-11-08T15:15:02.233Z,12.16
2022-11-08T15:17:39.747Z,12.00
2022-11-08T15:20:20.187Z,11.93
2022-11-08T15:22:48.461Z,11.85
2022-11-08T15:25:28.466Z,11.80
2022-11-08T15:27:57.711Z,11.76
2022-11-08T15:30:30.238Z,11.67
2022-11-08T15:32:56.933Z,11.61
2022-11-08T15:35:31.876Z,11.53
2022-11-08T15:38:21.335Z,11.52
2022-11-08T15:40:52.776Z,11.43
2022-11-08T15:43:45.314Z,11.49
2022-11-08T15:46:38.210Z,11.41
2022-11-08T15:49:36.710Z,11.26
2022-11-08T15:52:04.254Z,11.22
2022-11-08T15:54:30.745Z,11.19
2022-11-08T15:56:57.386Z,11.18
2022-11-08T15:59:28.549Z,11.21
2022-11-08T16:01:58.598Z,11.19
2022-11-08T16:04:26.919Z,11.11
2022-11-08T16:06:55.571Z,11.05
2022-11-08T16:09:22.130Z,10.99
2022-11-08T16:11:49.713Z,10.92
2022-11-08T16:14:19.993Z,10.91
2022-11-08T16:16:46.928Z,10.83
2022-11-08T16:19:23.601Z,10.78
2022-11-08T16:21:51.614Z,10.70
2022-11-08T16:24:18.385Z,10.69
2022-11-08T16:26:45.923Z,10.65
2022-11-08T16:29:24.289Z,10.57
2022-11-08T16:31:51.391Z,10.58
2022-11-08T16:34:18.354Z,10.55
2022-11-08T16:36:46.489Z,10.52
2022-11-08T16:39:18.368Z,10.52
2022-11-08T16:41:45.413Z,10.51
2022-11-08T16:44:12.204Z,10.49
2022-11-08T16:46:39.329Z,10.48
2022-11-08T16:49:07.230Z,10.45
2022-11-08T16:51:34.074Z,10.39
2022-11-08T16:54:02.745Z,10.33
2022-11-08T16:56:29.360Z,10.32
2022-11-08T16:58:55.890Z,10.31
2022-11-08T17:01:32.433Z,10.31
2022-11-08T17:03:58.953Z,10.25
2022-11-08T17:06:25.696Z,10.23
2022-11-08T17:08:52.310Z,10.20
2022-11-08T17:11:21.567Z,10.19
2022-11-08T17:13:48.672Z,10.20
2022-11-08T17:16:15.946Z,10.16
2022-11-08T17:18:42.811Z,10.16
2022-11-08T17:21:38.237Z,10.14
2022-11-08T17:23:58.745Z,10.10
2022-11-08T17:26:25.311Z,10.10
2022-11-08T17:28:56.232Z,10.10
2022-11-08T17:31:22.804Z,10.11
2022-11-08T17:33:50.553Z,10.08
2022-11-08T17:36:17.106Z,10.09
2022-11-08T17:38:43.651Z,10.07
2022-11-08T17:41:15.035Z,10.06
2022-11-08T17:43:42.625Z,10.04
2022-11-08T17:46:10.770Z,10.01
2022-11-08T17:48:39.446Z,10.00
2022-11-08T17:51:06.185Z,9.99
2022-11-08T17:53:33.762Z,9.99
2022-11-08T17:56:02.001Z,10.02
2022-11-08T17:58:29.084Z,10.03
2022-11-08T18:00:58.024Z,10.04
2022-11-08T18:03:26.072Z,10.04
2022-11-08T18:06:16.478Z,10.01
2022-11-08T18:08:43.373Z,9.99
2022-11-08T18:11:09.938Z,9.98
2022-11-08T18:13:36.488Z,9.99
2022-11-08T18:16:08.763Z,10.00
2022-11-08T18:18:36.769Z,10.01
2022-11-08T18:21:03.733Z,9.97
2022-11-08T18:23:30.208Z,9.96
2022-11-08T18:25:56.720Z,9.96
2022-11-08T18:28:24.258Z,9.99
2022-11-08T18:30:51.103Z,9.98
2022-11-08T18:33:20.179Z,10.02
2022-11-08T18:35:47.103Z,9.97
2022-11-08T18:38:14.039Z,9.98
2022-11-08T18:40:44.645Z,9.95
2022-11-08T18:43:11.421Z,9.93
2022-11-08T18:45:38.047Z,9.94
2022-11-08T18:48:04.706Z,9.92
2022-11-08T18:50:31.297Z,9.96
2022-11-08T18:53:03.098Z,9.98
2022-11-08T18:55:31.399Z,9.99
2022-11-08T18:57:57.888Z,9.99
2022-11-08T19:00:24.561Z,9.97
2022-11-08T19:02:51.128Z,9.97
2022-11-08T19:05:17.853Z,9.98
2022-11-08T19:07:44.354Z,9.97
2022-11-08T19:10:10.936Z,10.00
2022-11-08T19:12:37.457Z,10.02
2022-11-08T19:15:04.206Z,10.01
2022-11-08T19:17:31.896Z,10.01
2022-11-08T19:19:58.403Z,9.99
2022-11-08T19:22:24.956Z,9.97
2022-11-08T19:24:51.426Z,9.97
2022-11-08T19:27:18.006Z,9.99
2022-11-08T19:29:44.484Z,10.01
2022-11-08T19:32:10.956Z,10.00
2022-11-08T19:34:37.645Z,10.01
2022-11-08T19:37:04.272Z,9.99
2022-11-08T19:39:30.863Z,10.02
2022-11-08T19:41:58.717Z,9.99
2022-11-08T19:44:25.614Z,9.95
2022-11-08T19:46:52.123Z,9.97
2022-11-08T19:49:19.721Z,9.97
2022-11-08T19:51:46.198Z,9.97
2022-11-08T19:54:14.597Z,9.95
2022-11-08T19:57:04.002Z,9.94
2022-11-08T19:59:27.576Z,9.91
2022-11-08T20:01:54.160Z,9.92
2022-11-08T20:04:20.996Z,9.92
2022-11-08T20:06:47.746Z,9.90
2022-11-08T20:09:14.324Z,9.89
2022-11-08T20:11:42.300Z,9.88
2022-11-08T20:14:11.649Z,9.88
2022-11-08T20:16:41.835Z,9.89
2022-11-08T20:19:13.922Z,9.90
2022-11-08T20:21:42.280Z,9.85
2022-11-08T20:24:10.440Z,9.86
2022-11-08T20:26:38.492Z,9.84
2022-11-08T20:29:07.326Z,9.85
2022-11-08T20:31:34.099Z,9.87
2022-11-08T20:34:01.676Z,9.86
2022-11-08T20:36:33.146Z,9.82
2022-11-08T20:39:05.622Z,9.82
2022-11-08T20:41:35.696Z,9.84
2022-11-08T20:44:02.634Z,9.86
2022-11-08T20:46:29.705Z,9.82
2022-11-08T20:49:00.361Z,9.79
2022-11-08T20:51:27.769Z,9.79
2022-11-08T20:53:55.970Z,9.75
2022-11-08T20:56:23.548Z,9.73
2022-11-08T20:58:51.308Z,9.72
2022-11-08T21:01:21.108Z,9.73
2022-11-08T21:03:48.341Z,9.72
2022-11-08T21:06:17.963Z,9.70
2022-11-08T21:09:07.486Z,9.70
2022-11-08T21:11:34.487Z,9.69
2022-11-08T21:14:01.827Z,9.71
2022-11-08T21:16:31.956Z,9.69
2022-11-08T21:19:01.994Z,9.68
2022-11-08T21:21:29.708Z,9.69
2022-11-08T21:23:56.610Z,9.66
2022-11-08T21:26:23.621Z,9.65
2022-11-08T21:28:51.009Z,9.66
2022-11-08T21:31:17.987Z,9.67
2022-11-08T21:33:44.546Z,9.66
2022-11-08T21:36:11.296Z,9.67
2022-11-08T21:38:39.678Z,9.66
2022-11-08T21:41:09.304Z,9.64
2022-11-08T21:43:37.357Z,9.64
2022-11-08T21:46:21.414Z,9.62
2022-11-08T21:48:53.390Z,9.62
2022-11-08T21:51:20.191Z,9.57
2022-11-08T21:53:53.911Z,9.56
2022-11-08T21:56:24.854Z,9.56
2022-11-08T21:58:53.011Z,9.56
2022-11-08T22:01:22.159Z,9.54
2022-11-08T22:03:50.838Z,9.53
2022-11-08T22:06:17.424Z,9.49
2022-11-08T22:08:43.970Z,9.47
2022-11-08T22:11:10.541Z,9.47
2022-11-08T22:13:37.117Z,9.46
2022-11-08T22:16:03.878Z,9.43
2022-11-08T22:18:58.225Z,9.39
2022-11-08T22:21:35.562Z,9.38
2022-11-08T22:24:02.295Z,9.39
2022-11-08T22:26:28.825Z,9.38
2022-11-08T22:28:55.370Z,9.37
2022-11-08T22:31:21.925Z,9.36
2022-11-08T22:33:48.730Z,9.35
2022-11-08T22:36:16.491Z,9.33
2022-11-08T22:38:43.053Z,9.33
2022-11-08T22:41:09.657Z,9.32
2022-11-08T22:43:36.343Z,9.30
2022-11-08T22:46:03.433Z,9.31
2022-11-08T22:48:30.005Z,9.28
2022-11-08T22:50:57.451Z,9.26
2022-11-08T22:53:24.134Z,9.23
2022-11-08T22:55:50.718Z,9.20
2022-11-08T22:58:17.590Z,9.20
2022-11-08T23:00:44.129Z,9.20
2022-11-08T23:03:11.109Z,9.19
2022-11-08T23:05:37.666Z,9.20
2022-11-08T23:08:04.443Z,9.18
2022-11-08T23:10:31.032Z,9.19
2022-11-08T23:13:16.315Z,9.17
2022-11-08T23:16:01.273Z,9.12
2022-11-08T23:18:27.865Z,9.12
2022-11-08T23:21:13.496Z,9.11
2022-11-08T23:23:58.777Z,9.13
2022-11-08T23:26:45.970Z,9.13
2022-11-08T23:29:30.787Z,9.08
2022-11-08T23:31:57.604Z,9.10
2022-11-08T23:34:24.184Z,9.10
2022-11-08T23:36:50.730Z,9.08
2022-11-08T23:39:17.342Z,9.07
2022-11-08T23:42:02.305Z,9.05
2022-11-08T23:44:28.740Z,9.07
2022-11-08T23:46:56.417Z,9.08
2022-11-08T23:49:22.969Z,9.09
2022-11-08T23:51:50.043Z,9.05
2022-11-08T23:54:16.931Z,9.04
2022-11-08T23:56:44.229Z,9.01
2022-11-08T23:59:11.800Z,9.03
